Weather observations for the past three days for
Miami, Opa Locka Airport
Metric (Imperial)
Date Time (edt) Wind (kph) Vis. (km) Weather Sky Cond. Temperature (ºC) Relative Humidity Wind Chill (°C) Heat Index (°C) Pressure Precipitation (cm)
Air Dwpt 6 hour altimeter (cm) sea level (mb) 1 hr 3 hr 6 hr
Max. Min.
09 09:53 S 11 16.09 Fair CLR 30 23.3 67% 34 76.1 1014.4
09 08:53 Calm 16.09 Fair CLR 27.8 23.3 77% 31 76.1 1014.5
09 07:53 Calm 16.09 Partly Cloudy SCT017 SCT024 26.1 22.8 26.1 23.9 82% 28 76.1 1014.5
09 06:53 NW 6 16.09 Partly Cloudy SCT020 23.9 22.2 90% 23 76.07 1014.1
09 05:53 NW 11 16.09 Partly Cloudy SCT023 23.9 22.8 94% 23 76.02 1013.6
09 04:53 Calm 16.09 Fair CLR 25.6 23.3 87% 27 76.02 1013.4
09 03:53 S 7 16.09 Fair CLR 25.6 23.3 87% 27 76.02 1013.5
09 02:53 S 6 16.09 Fair CLR 25.6 23.3 87% 27 76.05 1013.8
09 01:53 SE 7 16.09 Fair CLR 26.1 23.9 28.3 26.1 88% 28 76.07 1014.2
09 00:53 SE 11 16.09 Fair CLR 26.7 23.9 85% 29 76.1 1014.6
08 23:53 E 9 16.09 Fair CLR 26.7 23.9 85% 29 76.12 1015.0
08 22:53 E 9 16.09 Fair CLR 26.7 23.9 85% 29 76.15 1015.2
08 21:53 SE 7 16.09 Fair CLR 27.2 23.9 82% 30 76.1 1014.6
08 20:53 E 11 16.09 Fair CLR 27.8 23.3 77% 31 76.05 1013.8
08 19:53 SE 13 16.09 Fair CLR 28.3 21.7 33.9 28.3 67% 31 76 1013.1
08 18:53 E 19 16.09 Fair CLR 29.4 21.7 63% 32 75.95 1012.6
08 17:53 E 19 16.09 Fair CLR 30.6 21.1 57% 33 75.97 1012.8
08 16:53 E 17 16.09 Fair CLR 31.7 20.6 52% 34 75.95 1012.7
08 15:53 E 20 G 30 16.09 Fair CLR 32.8 20 47% 35 76 1013.3
08 14:53 SE 17 16.09 Fair CLR 32.8 19.4 45% 35 76.05 1013.9
08 13:53 NW 11 16.09 Fair CLR 33.9 12.8 33.9 23.9 28% 33 76.1 1014.5
08 12:53 W 7 16.09 Fair CLR 32.8 16.1 37% 33 76.15 1015.3
08 11:53 Vrbl 9 16.09 Fair CLR 31.1 18.3 46% 32 76.23 1016.2
08 10:53 N 11 16.09 Fair CLR 30.6 20 53% 33 76.23 1016.3
08 09:53 Vrbl 11 16.09 Fair CLR 28.9 20 59% 31 76.23 1016.4
08 08:53 N 15 16.09 Fair CLR 26.7 20 67% 28 76.23 1016.2
08 07:53 N 11 16.09 Fair CLR 23.9 20 25 21.7 79% 24 76.17 1015.6
08 06:53 W 7 16.09 Fair CLR 21.7 19.4 87% 76.12 1014.9
08 05:53 W 7 16.09 Fair CLR 21.7 19.4 87% 76.07 1014.2
08 04:53 W 7 16.09 Fair CLR 22.2 19.4 84% 76.07 1014.2
08 03:53 W 7 16.09 Fair CLR 22.8 20 84% 76.05 1014.0
08 02:53 W 7 16.09 Fair CLR 23.9 19.4 76% 24 76.05 1014.0
08 01:53 W 7 16.09 Fair CLR 25 22.8 28.9 25 88% 26 76.1 1014.6
08 00:53 SW 11 16.09 Fair CLR 26.1 21.7 77% 28 76.1 1014.7
07 23:53 SE 13 16.09 Fair CLR 27.2 23.3 79% 30 76.12 1014.8
07 22:53 SE 11 16.09 Fair CLR 27.2 22.2 74% 30 76.12 1015.0
07 21:53 SE 11 16.09 Fair CLR 27.8 21.7 69% 30 76.12 1014.8
07 20:53 SE 15 16.09 Fair CLR 28.3 22.2 70% 31 76.07 1014.4
07 19:53 SE 13 16.09 Fair CLR 28.9 21.7 34.4 28.9 65% 32 76.07 1014.1
07 18:53 SE 11 16.09 Fair CLR 30.6 21.7 59% 34 76.02 1013.7
07 17:53 SE 20 16.09 Fair CLR 31.7 20.6 52% 34 76.02 1013.5
07 16:53 SE 20 16.09 Fair CLR 32.8 21.1 50% 36 76.02 1013.7
07 15:53 E 20 G 28 16.09 Fair CLR 32.2 20.6 50% 35 76.05 1014.0
07 14:53 E 6 16.09 Fair CLR 34.4 16.1 33% 35 76.1 1014.5
07 13:53 Vrbl 7 16.09 Fair CLR 33.3 16.7 33.3 25.6 37% 34 76.17 1015.5
07 12:53 SW 19 16.09 A Few Clouds FEW055 32.2 18.9 45% 34 76.2 1016.0
07 11:53 SE 13 16.09 Fair CLR 31.7 20 50% 34 76.25 1016.8
07 10:53 Calm 16.09 Fair CLR 30 21.1 59% 33 76.3 1017.2
07 09:53 W 6 16.09 Fair CLR 28.3 22.2 70% 31 76.3 1017.2
07 08:53 NW 7 16.09 Fair CLR 26.7 21.7 74% 29 76.28 1017.1
07 07:53 Calm 16.09 Fair CLR 25.6 21.7 25.6 21.7 79% 27 76.25 1016.6
07 06:53 Calm 16.09 Fair CLR 22.2 20.6 91% 76.2 1015.9
07 05:53 Calm 16.09 Fair CLR 22.8 20 84% 76.15 1015.2
07 04:53 Calm 16.09 Fair CLR 22.8 19.4 81% 76.12 1015.1
07 03:53 Calm 16.09 Fair CLR 23.3 19.4 79% 76.15 1015.2
07 02:53 Calm 16.09 Fair CLR 23.9 18.9 74% 25 76.17 1015.5
07 01:53 Calm 16.09 Fair CLR 23.3 18.9 27.2 23.3 76% 76.23 1016.2
07 00:53 E 7 16.09 Fair CLR 24.4 18.9 72% 25 76.25 1016.5
06 23:53 E 7 16.09 Fair CLR 25.6 18.9 67% 27 76.25 1016.8
06 22:53 E 9 16.09 Fair CLR 26.1 19.4 67% 27 76.28 1017.0
06 21:53 E 9 16.09 Fair CLR 26.1 18.9 65% 27 76.28 1016.9
06 20:53 E 11 16.09 Fair CLR 26.7 17.2 56% 27 76.28 1016.8
06 19:53 E 19 16.09 Fair CLR 26.7 20 31.7 26.7 67% 28 76.25 1016.6
06 18:53 E 20 G 33 16.09 Fair CLR 28.3 21.1 65% 31 76.23 1016.3
06 17:53 E 19 16.09 Fair CLR 29.4 20 57% 31 76.17 1015.7
06 16:53 E 20 16.09 Fair CLR 30 18.3 49% 31 76.15 1015.4
06 15:53 E 20 16.09 Fair CLR 31.1 20 52% 33 76.2 1016.0
06 14:53 E 17 16.09 Fair CLR 31.1 19.4 50% 33 76.23 1016.4
06 13:53 SE 19 16.09 Fair CLR 31.1 20.6 31.7 25.6 54% 34 76.28 1016.9
06 12:53 SE 17 G 30 16.09 Fair CLR 31.1 21.1 55% 34 76.3 1017.4
06 11:53 S 9 16.09 A Few Clouds FEW047 FEW055 30 21.7 61% 33 76.33 1017.5
06 10:53 SE 7 16.09 Fair CLR 29.4 21.7 63% 32 76.3 1017.4
Date Time (edt) Wind (kph) Vis. (km) Weather Sky Cond. Air Dwpt Max. Min. Relative Humidity Wind Chill (°C) Heat Index (°C) altimeter (cm) sea level (mb) 1 hr 3 hr 6 hr
6 hour
Temperature (ºC) Pressure Precipitation (cm)